Time;durP1;ratioP1;P1;durP2;ratioP2;P2;SDS_P1;SDS_P2;PMS_P1;PMS_P2;Temp;Humidity;BMP_temperature;BMP_pressure;BME280_temperature;BME280_humidity;BME280_pressure;Samples;Min_cycle;Max_cycle;Signal;HPM_P1;HPM_P2
2023/02/17 00:00:21;;;;;;;;;;;;;;;-4.61;67.81;102495.78;1949333;74;20116;-41
2023/02/17 00:02:49;;;;;;;;;;;;;;;-4.55;67.71;102485.83;1947687;74;20143;-41
2023/02/17 00:05:16;;;;;;;;;;;;;;;-4.52;67.71;102492.39;1946851;74;20117;-41
2023/02/17 00:07:44;;;;;;;;;;;;;;;-4.53;67.73;102488.07;1950149;74;20160;-41
2023/02/17 00:10:12;;;;;;;;;;;;;;;-4.48;67.68;102496.91;1944588;74;20112;-44
2023/02/17 00:12:40;;;;;;;;;;;;;;;-4.40;67.60;102503.72;1928227;74;20104;-41
2023/02/17 00:15:07;;;;;;;;;;;;;;;-4.37;67.50;102490.62;1947768;74;20116;-40
2023/02/17 00:17:35;;;;;;;;;;;;;;;-4.34;67.56;102480.87;1950269;74;20120;-40
2023/02/17 00:20:03;;;;;;;;;;;;;;;-4.41;67.67;102468.09;1946935;74;20116;-41
2023/02/17 00:22:31;;;;;;;;;;;;;;;-4.44;67.71;102476.97;1949085;74;20195;-40
2023/02/17 00:24:59;;;;;;;;;;;;;;;-4.46;67.71;102467.02;1933744;74;20116;-41
2023/02/17 00:27:27;;;;;;;;;;;;;;;-4.46;67.63;102465.73;1942659;74;20113;-41
2023/02/17 00:29:54;;;;;;;;;;;;;;;-4.44;67.56;102463.20;1939082;74;20168;-41
2023/02/17 00:32:22;;;;;;;;;;;;;;;-4.43;67.52;102460.72;1940469;74;20142;-40
2023/02/17 00:34:52;;;;;;;;;;;;;;;-4.46;67.50;102467.02;1945009;74;20140;-39
2023/02/17 00:37:20;;;;;;;;;;;;;;;-4.48;67.58;102457.93;1925387;74;20116;-42
2023/02/17 00:39:48;;;;;;;;;;;;;;;-4.50;67.67;102453.49;1948268;74;20598;-43
2023/02/17 00:42:17;;;;;;;;;;;;;;;-4.57;67.86;102454.02;1950034;73;20162;-38
2023/02/17 00:44:45;;;;;;;;;;;;;;;-4.60;67.89;102451.28;1948453;73;20191;-39
2023/02/17 00:47:13;;;;;;;;;;;;;;;-4.60;67.97;102444.45;1951150;73;20120;-41
2023/02/17 00:49:41;;;;;;;;;;;;;;;-4.59;68.08;102445.32;1933580;74;20105;-41
2023/02/17 00:52:09;;;;;;;;;;;;;;;-4.57;68.01;102447.59;1945002;73;20108;-42
2023/02/17 00:54:37;;;;;;;;;;;;;;;-4.55;67.98;102452.41;1953532;73;20358;-41
2023/02/17 00:57:05;;;;;;;;;;;;;;;-4.56;68.03;102439.06;1953297;73;20389;-41
2023/02/17 00:59:33;;;;;;;;;;;;;;;-4.59;68.14;102435.04;1953190;73;20108;-41
2023/02/17 01:02:01;;;;;;;;;;;;;;;-4.55;68.12;102429.27;1953326;73;20105;-41
2023/02/17 01:04:29;;;;;;;;;;;;;;;-4.48;68.10;102428.77;1953393;73;20121;-40
2023/02/17 01:06:57;;;;;;;;;;;;;;;-4.43;68.04;102419.57;1952948;73;20100;-40
2023/02/17 01:09:25;;;;;;;;;;;;;;;-4.38;68.10;102423.67;1953411;73;20147;-40
2023/02/17 01:11:53;;;;;;;;;;;;;;;-4.36;68.10;102424.21;1953423;73;20112;-40
2023/02/17 01:14:20;;;;;;;;;;;;;;;-4.39;68.26;102418.94;1953335;73;20116;-41
2023/02/17 01:16:48;;;;;;;;;;;;;;;-4.37;68.18;102416.03;1954376;73;20096;-40
2023/02/17 01:19:18;;;;;;;;;;;;;;;-4.33;68.17;102420.52;1927123;73;20165;-40
2023/02/17 01:21:47;;;;;;;;;;;;;;;-4.32;68.19;102409.81;1953302;73;20157;-40
2023/02/17 01:24:16;;;;;;;;;;;;;;;-4.28;68.24;102403.63;1953117;73;20120;-40
2023/02/17 01:26:43;;;;;;;;;;;;;;;-4.22;68.26;102405.61;1953920;73;20112;-40
2023/02/17 01:29:11;;;;;;;;;;;;;;;-4.16;68.18;102399.87;1952813;73;20191;-39
2023/02/17 01:31:40;;;;;;;;;;;;;;;-4.10;68.14;102396.30;1953456;73;20100;-40
2023/02/17 01:34:10;;;;;;;;;;;;;;;-4.05;68.19;102383.66;1953217;73;20152;-40
2023/02/17 01:36:37;;;;;;;;;;;;;;;-4.03;68.25;102377.77;1953305;73;20112;-40
2023/02/17 01:39:05;;;;;;;;;;;;;;;-4.00;68.19;102381.78;1953138;73;20143;-40
2023/02/17 01:41:33;;;;;;;;;;;;;;;-3.99;68.28;102386.10;1953218;73;20193;-42
2023/02/17 01:44:11;;;;;;;;;;;;;;;-4.04;68.76;102377.28;1953245;73;20386;-40
2023/02/17 01:46:41;;;;;;;;;;;;;;;-4.01;68.67;102379.13;1956774;73;20117;-43
2023/02/17 01:49:19;;;;;;;;;;;;;;;-3.97;68.71;102377.17;1953593;73;20116;-44
2023/02/17 01:51:48;;;;;;;;;;;;;;;-3.95;68.77;102377.70;1949893;73;20100;-44
2023/02/17 01:54:17;;;;;;;;;;;;;;;-3.91;68.74;102374.49;1949058;74;20188;-42
2023/02/17 01:56:46;;;;;;;;;;;;;;;-3.86;68.58;102377.67;1940513;74;20476;-41
2023/02/17 01:59:18;;;;;;;;;;;;;;;-3.83;68.47;102375.25;1925903;74;20382;-41
2023/02/17 02:01:50;;;;;;;;;;;;;;;-3.78;68.43;102369.51;1923128;74;20116;-40
2023/02/17 02:04:18;;;;;;;;;;;;;;;-3.72;68.36;102369.77;1901368;74;20097;-40
2023/02/17 02:06:47;;;;;;;;;;;;;;;-3.66;68.34;102369.59;1946820;74;20195;-42
2023/02/17 02:09:16;;;;;;;;;;;;;;;-3.64;68.35;102364.97;1927008;74;20100;-42
2023/02/17 02:11:43;;;;;;;;;;;;;;;-3.65;68.45;102368.38;1923697;74;20105;-41
2023/02/17 02:14:12;;;;;;;;;;;;;;;-3.69;68.66;102370.30;1930333;74;20112;-42
2023/02/17 02:16:42;;;;;;;;;;;;;;;-3.71;68.66;102365.50;1928830;74;20378;-41
2023/02/17 02:19:17;;;;;;;;;;;;;;;-3.77;68.95;102361.37;1947341;74;20227;-42
2023/02/17 02:21:49;;;;;;;;;;;;;;;-3.82;69.16;102361.55;1929006;74;20183;-41
2023/02/17 02:24:24;;;;;;;;;;;;;;;-3.85;69.29;102360.12;1948563;74;20112;-39
2023/02/17 02:27:10;;;;;;;;;;;;;;;-3.84;69.27;102355.46;1948364;74;20138;-41
2023/02/17 02:29:39;;;;;;;;;;;;;;;-3.81;69.21;102360.34;1949634;74;20134;-40
2023/02/17 02:32:27;;;;;;;;;;;;;;;-3.80;69.27;102359.93;1951357;74;20112;-40
2023/02/17 02:34:56;;;;;;;;;;;;;;;-3.76;69.33;102355.01;1947617;74;20160;-41
2023/02/17 02:37:25;;;;;;;;;;;;;;;-3.68;69.43;102359.21;1934069;74;20113;-41
2023/02/17 02:39:54;;;;;;;;;;;;;;;-3.65;69.53;102352.92;1931709;74;20145;-44
2023/02/17 02:42:24;;;;;;;;;;;;;;;-3.60;69.57;102357.84;1944918;74;20411;-41
2023/02/17 02:44:52;;;;;;;;;;;;;;;-3.54;69.50;102352.99;1930436;74;20140;-40
2023/02/17 02:47:38;;;;;;;;;;;;;;;-3.50;69.50;102352.73;1949478;74;20121;-40
2023/02/17 02:50:07;;;;;;;;;;;;;;;-3.42;69.65;102359.50;1947502;73;20108;-40
2023/02/17 02:52:46;;;;;;;;;;;;;;;-3.36;69.72;102354.61;1953602;73;20471;-41
2023/02/17 02:55:24;;;;;;;;;;;;;;;-3.29;69.58;102352.78;1953302;73;20104;-41
2023/02/17 02:58:03;;;;;;;;;;;;;;;-3.19;69.41;102354.95;1889206;76;20177;-40
2023/02/17 03:00:47;;;;;;;;;;;;;;;-3.13;69.31;102356.49;1954858;73;20096;-41
2023/02/17 03:03:17;;;;;;;;;;;;;;;-3.13;69.31;102350.47;1952660;73;20163;-41
2023/02/17 03:05:49;;;;;;;;;;;;;;;-3.07;69.19;102356.29;1952551;73;20171;-41
2023/02/17 03:08:20;;;;;;;;;;;;;;;-3.03;69.07;102351.31;1928041;73;20400;-41
2023/02/17 03:10:49;;;;;;;;;;;;;;;-2.96;69.04;102356.34;1951905;73;20112;-43
2023/02/17 03:13:18;;;;;;;;;;;;;;;-2.92;69.00;102353.94;1953349;73;20104;-43
2023/02/17 03:15:46;;;;;;;;;;;;;;;-2.92;69.03;102352.64;1953091;73;20109;-44
2023/02/17 03:18:14;;;;;;;;;;;;;;;-2.90;69.00;102357.88;1953326;73;20104;-44
2023/02/17 03:20:45;;;;;;;;;;;;;;;-2.87;68.96;102356.72;1953400;73;21057;-43
2023/02/17 03:23:12;;;;;;;;;;;;;;;-2.85;68.94;102352.50;1953195;73;20100;-41
2023/02/17 03:25:41;;;;;;;;;;;;;;;-2.87;68.95;102354.14;1953426;73;20112;-43
2023/02/17 03:28:08;;;;;;;;;;;;;;;-2.86;68.97;102343.41;1948401;73;20164;-42
2023/02/17 03:30:36;;;;;;;;;;;;;;;-2.87;69.08;102342.55;1937937;73;20163;-42
2023/02/17 03:33:04;;;;;;;;;;;;;;;-2.84;69.07;102345.64;1955125;73;20100;-42
2023/02/17 03:35:32;;;;;;;;;;;;;;;-2.82;69.15;102341.05;1954101;73;20162;-42
2023/02/17 03:38:00;;;;;;;;;;;;;;;-2.80;69.26;102335.54;1952948;73;20113;-43
2023/02/17 03:40:27;;;;;;;;;;;;;;;-2.80;69.40;102336.83;1954350;73;20120;-43
2023/02/17 03:42:56;;;;;;;;;;;;;;;-2.77;69.37;102330.91;1954284;73;20164;-42
2023/02/17 03:45:24;;;;;;;;;;;;;;;-2.74;69.31;102328.47;1953175;73;20104;-42
2023/02/17 03:47:52;;;;;;;;;;;;;;;-2.68;69.24;102322.26;1954398;73;20536;-41
2023/02/17 03:50:19;;;;;;;;;;;;;;;-2.61;69.24;102332.42;1953087;73;20144;-41
2023/02/17 03:52:47;;;;;;;;;;;;;;;-2.56;69.24;102324.47;1943816;73;20116;-42
2023/02/17 03:55:15;;;;;;;;;;;;;;;-2.48;69.17;102326.94;1935988;74;20203;-42
2023/02/17 03:57:43;;;;;;;;;;;;;;;-2.42;69.17;102331.03;1941790;74;20116;-42
2023/02/17 04:00:11;;;;;;;;;;;;;;;-2.35;69.20;102326.59;1932034;74;20143;-41
2023/02/17 04:02:41;;;;;;;;;;;;;;;-2.28;69.14;102325.14;1937840;73;20100;-39
2023/02/17 04:05:09;;;;;;;;;;;;;;;-2.21;69.12;102323.70;1935359;73;20161;-45
2023/02/17 04:07:37;;;;;;;;;;;;;;;-2.12;69.04;102325.73;1930266;74;20147;-41
2023/02/17 04:10:05;;;;;;;;;;;;;;;-2.06;68.90;102325.56;1942251;74;20142;-43
2023/02/17 04:12:33;;;;;;;;;;;;;;;-2.00;68.87;102319.34;1942760;74;20112;-39
2023/02/17 04:15:00;;;;;;;;;;;;;;;-1.96;68.83;102319.91;1946385;74;20113;-44
2023/02/17 04:17:28;;;;;;;;;;;;;;;-1.89;68.82;102326.62;1948821;74;20195;-39
2023/02/17 04:19:56;;;;;;;;;;;;;;;-1.84;68.74;102326.39;1944321;74;20169;-39
2023/02/17 04:22:24;;;;;;;;;;;;;;;-1.79;68.76;102318.37;1940425;74;20148;-39
2023/02/17 04:24:51;;;;;;;;;;;;;;;-1.72;68.75;102315.20;1916603;73;20118;-42
2023/02/17 04:27:19;;;;;;;;;;;;;;;-1.68;68.69;102316.19;1938347;74;20512;-40
2023/02/17 04:29:47;;;;;;;;;;;;;;;-1.67;68.74;102314.09;1934468;74;20121;-39
2023/02/17 04:32:15;;;;;;;;;;;;;;;-1.65;68.81;102307.27;1926927;74;20102;-40
2023/02/17 04:34:42;;;;;;;;;;;;;;;-1.61;68.79;102305.27;1924750;75;20118;-40
2023/02/17 04:37:10;;;;;;;;;;;;;;;-1.59;68.80;102304.48;1924975;75;20365;-40
2023/02/17 04:39:38;;;;;;;;;;;;;;;-1.57;68.95;102303.25;1924844;75;20123;-40
2023/02/17 04:42:06;;;;;;;;;;;;;;;-1.53;68.98;102301.66;1924837;75;20166;-40
2023/02/17 04:44:33;;;;;;;;;;;;;;;-1.48;68.92;102295.83;1924809;75;20154;-40
2023/02/17 04:47:01;;;;;;;;;;;;;;;-1.44;69.01;102301.98;1924740;75;20102;-40
2023/02/17 04:49:29;;;;;;;;;;;;;;;-1.42;69.02;102299.03;1924824;75;20197;-40
2023/02/17 04:51:56;;;;;;;;;;;;;;;-1.37;68.96;102302.25;1928230;73;20147;-40
2023/02/17 04:54:24;;;;;;;;;;;;;;;-1.31;68.87;102306.78;1966503;73;20111;-40
2023/02/17 04:56:52;;;;;;;;;;;;;;;-1.26;68.81;102310.80;1967014;73;20342;-40
2023/02/17 04:59:20;;;;;;;;;;;;;;;-1.21;68.79;102311.42;1968121;73;20099;-39
2023/02/17 05:01:47;;;;;;;;;;;;;;;-1.17;68.70;102310.70;1967995;73;20147;-40
2023/02/17 05:04:15;;;;;;;;;;;;;;;-1.11;68.74;102310.45;1968124;73;20099;-40
2023/02/17 05:06:43;;;;;;;;;;;;;;;-1.08;68.69;102313.14;1968089;73;20146;-40
2023/02/17 05:09:10;;;;;;;;;;;;;;;-1.07;68.69;102308.03;1968113;73;20112;-39
2023/02/17 05:11:38;;;;;;;;;;;;;;;-1.03;68.77;102303.84;1968102;73;20104;-39
2023/02/17 05:14:06;;;;;;;;;;;;;;;-1.01;68.81;102315.98;1967948;73;20189;-41
2023/02/17 05:16:34;;;;;;;;;;;;;;;-0.95;68.67;102314.02;1968036;72;20202;-40
2023/02/17 05:19:01;;;;;;;;;;;;;;;-0.91;68.56;102319.75;1968181;73;20111;-40
2023/02/17 05:21:29;;;;;;;;;;;;;;;-0.88;68.50;102307.36;1968221;73;20103;-40
2023/02/17 05:23:57;;;;;;;;;;;;;;;-0.94;68.52;102316.19;1968187;73;20152;-40
2023/02/17 05:26:24;;;;;;;;;;;;;;;-0.97;68.45;102319.55;1968285;73;20362;-39
2023/02/17 05:28:52;;;;;;;;;;;;;;;-0.96;68.36;102316.12;1968134;73;20119;-40
2023/02/17 05:31:20;;;;;;;;;;;;;;;-0.94;68.33;102308.42;1968188;73;20112;-40
2023/02/17 05:33:48;;;;;;;;;;;;;;;-0.92;68.31;102321.89;1968275;73;20402;-40
2023/02/17 05:36:16;;;;;;;;;;;;;;;-0.90;68.46;102319.36;1968203;73;20111;-40
2023/02/17 05:38:47;;;;;;;;;;;;;;;-0.86;68.49;102321.22;1968207;73;20150;-39
2023/02/17 05:41:13;;;;;;;;;;;;;;;-0.78;68.45;102321.91;1967638;73;20401;-40
2023/02/17 05:43:40;;;;;;;;;;;;;;;-0.74;68.55;102318.14;1968181;73;20162;-40
2023/02/17 05:46:08;;;;;;;;;;;;;;;-0.69;68.65;102304.95;1968200;73;20115;-40
2023/02/17 05:48:36;;;;;;;;;;;;;;;-0.63;68.51;102306.43;1968243;73;20146;-39
2023/02/17 05:51:04;;;;;;;;;;;;;;;-0.55;68.40;102306.28;1968188;73;20116;-40
2023/02/17 05:53:32;;;;;;;;;;;;;;;-0.50;68.28;102307.70;1959274;73;20142;-40
2023/02/17 05:56:00;;;;;;;;;;;;;;;-0.43;68.25;102298.01;1955142;73;20120;-39
2023/02/17 05:58:27;;;;;;;;;;;;;;;-0.35;68.23;102296.95;1914956;73;20385;-40
2023/02/17 06:00:55;;;;;;;;;;;;;;;-0.25;68.16;102295.12;1914074;75;20153;-39
2023/02/17 06:03:23;;;;;;;;;;;;;;;-0.13;68.07;102291.61;1914036;75;20178;-40
2023/02/17 06:05:50;;;;;;;;;;;;;;;-0.04;67.95;102282.82;1914086;75;20115;-39
2023/02/17 06:08:18;;;;;;;;;;;;;;;0.05;67.86;102281.31;1913992;75;20115;-40
2023/02/17 06:10:46;;;;;;;;;;;;;;;0.12;67.80;102279.38;1914064;75;20162;-40
2023/02/17 06:13:14;;;;;;;;;;;;;;;0.22;67.76;102278.78;1914113;75;20111;-39
2023/02/17 06:15:41;;;;;;;;;;;;;;;0.33;67.83;102280.38;1914101;75;20118;-39
2023/02/17 06:18:09;;;;;;;;;;;;;;;0.41;67.77;102280.59;1914040;75;20170;-39
2023/02/17 06:20:37;;;;;;;;;;;;;;;0.45;67.72;102279.86;1914090;75;20197;-39
2023/02/17 06:23:04;;;;;;;;;;;;;;;0.44;67.82;102268.59;1914136;74;20142;-39
2023/02/17 06:25:32;;;;;;;;;;;;;;;0.41;68.18;102261.16;1914150;75;20119;-39
2023/02/17 06:28:00;;;;;;;;;;;;;;;0.40;68.58;102264.17;1914010;75;20145;-39
2023/02/17 06:30:28;;;;;;;;;;;;;;;0.44;68.69;102263.84;1914056;75;20184;-39
2023/02/17 06:32:57;;;;;;;;;;;;;;;0.50;68.82;102254.92;1914093;75;20182;-39
2023/02/17 06:35:25;;;;;;;;;;;;;;;0.55;68.90;102255.53;1914076;75;20153;-41
2023/02/17 06:37:53;;;;;;;;;;;;;;;0.64;68.92;102256.59;1914078;75;20123;-39
2023/02/17 06:40:21;;;;;;;;;;;;;;;0.74;68.96;102251.70;1914062;75;20107;-39
2023/02/17 06:42:48;;;;;;;;;;;;;;;0.82;69.21;102249.72;1914200;75;20119;-39
2023/02/17 06:45:16;;;;;;;;;;;;;;;0.91;69.43;102242.17;1914052;75;20123;-39
2023/02/17 06:47:44;;;;;;;;;;;;;;;1.01;69.68;102235.48;1914007;75;20126;-39
2023/02/17 06:50:12;;;;;;;;;;;;;;;1.10;69.94;102230.09;1913923;75;20145;-39
2023/02/17 06:52:39;;;;;;;;;;;;;;;1.21;70.16;102222.99;1913319;74;20106;-39
2023/02/17 06:55:07;;;;;;;;;;;;;;;1.32;70.07;102209.41;1904537;75;20192;-39
2023/02/17 06:57:35;;;;;;;;;;;;;;;1.47;70.00;102214.06;1928901;74;20101;-39
2023/02/17 07:00:04;;;;;;;;;;;;;;;1.63;69.89;102214.42;1943942;74;20900;-39
2023/02/17 07:02:32;;;;;;;;;;;;;;;1.82;69.75;102213.95;1944027;74;20374;-40
2023/02/17 07:04:59;;;;;;;;;;;;;;;1.98;69.93;102219.05;1943889;74;20196;-39
2023/02/17 07:07:27;;;;;;;;;;;;;;;2.16;69.97;102210.74;1943939;74;20195;-39
2023/02/17 07:09:55;;;;;;;;;;;;;;;2.28;69.93;102197.09;1943985;74;20116;-39
2023/02/17 07:12:23;;;;;;;;;;;;;;;2.37;69.83;102200.29;1943889;74;20520;-39
2023/02/17 07:14:50;;;;;;;;;;;;;;;2.47;69.99;102199.59;1943962;74;20143;-38
2023/02/17 07:17:18;;;;;;;;;;;;;;;2.57;69.92;102192.41;1943881;74;20117;-39
2023/02/17 07:19:46;;;;;;;;;;;;;;;2.66;69.70;102192.58;1943994;74;20101;-39
2023/02/17 07:22:14;;;;;;;;;;;;;;;2.72;69.68;102187.03;1944018;74;20147;-39
2023/02/17 07:24:41;;;;;;;;;;;;;;;2.75;69.80;102189.66;1943941;74;20117;-39
2023/02/17 07:27:09;;;;;;;;;;;;;;;2.77;69.82;102189.29;1943954;74;20151;-39
2023/02/17 07:29:37;;;;;;;;;;;;;;;2.79;70.41;102181.08;1943829;74;20101;-40
2023/02/17 07:32:05;;;;;;;;;;;;;;;2.78;70.29;102181.48;1943957;74;20195;-39
2023/02/17 07:34:32;;;;;;;;;;;;;;;2.80;70.54;102178.91;1944060;74;20109;-39
2023/02/17 07:37:00;;;;;;;;;;;;;;;2.86;70.73;102177.73;1943929;74;20512;-39
2023/02/17 07:39:28;;;;;;;;;;;;;;;2.88;71.04;102167.78;1943977;74;20148;-39
2023/02/17 07:41:59;;;;;;;;;;;;;;;2.99;70.98;102160.55;1944128;74;20186;-39
2023/02/17 07:44:25;;;;;;;;;;;;;;;3.14;70.91;102154.73;1943639;74;20112;-39
2023/02/17 07:46:53;;;;;;;;;;;;;;;3.25;70.93;102154.02;1943962;74;20109;-39
2023/02/17 07:49:21;;;;;;;;;;;;;;;3.31;70.93;102144.11;1943958;74;20104;-39
2023/02/17 07:51:48;;;;;;;;;;;;;;;3.41;70.90;102146.40;1943958;74;20163;-39
2023/02/17 07:54:17;;;;;;;;;;;;;;;3.50;70.79;102145.65;1943741;73;20120;-38
2023/02/17 07:56:45;;;;;;;;;;;;;;;3.57;71.09;102139.67;1943946;74;20105;-40
2023/02/17 07:59:14;;;;;;;;;;;;;;;3.55;71.13;102128.36;1945386;74;20393;-39
2023/02/17 08:01:42;;;;;;;;;;;;;;;3.63;71.18;102142.34;1945334;74;20108;-39
2023/02/17 08:04:09;;;;;;;;;;;;;;;3.71;71.15;102135.51;1945184;74;20117;-39
2023/02/17 08:06:38;;;;;;;;;;;;;;;3.79;71.04;102131.68;1945295;74;20113;-39
2023/02/17 08:14:38;;;;;;;;;;;;;;;3.89;71.07;102128.73;1945250;74;20183;-39
2023/02/17 08:17:06;;;;;;;;;;;;;;;3.94;71.07;102128.37;1945271;74;20105;-39
2023/02/17 08:19:34;;;;;;;;;;;;;;;3.95;71.08;102132.73;1945224;74;20112;-41
2023/02/17 08:22:02;;;;;;;;;;;;;;;3.89;71.07;102129.61;1945273;74;20206;-39
2023/02/17 08:24:30;;;;;;;;;;;;;;;3.88;71.13;102113.98;1945445;74;20124;-39
2023/02/17 08:26:58;;;;;;;;;;;;;;;3.86;71.14;102111.35;1945279;74;20294;-39
2023/02/17 08:29:26;;;;;;;;;;;;;;;3.99;71.05;102101.93;1945235;74;20104;-39
2023/02/17 08:31:54;;;;;;;;;;;;;;;4.10;70.99;102112.03;1945240;74;20160;-39
2023/02/17 08:34:22;;;;;;;;;;;;;;;4.11;71.05;102104.63;1945092;74;20113;-39
2023/02/17 08:36:49;;;;;;;;;;;;;;;4.13;71.04;102101.64;1945240;74;20117;-39
2023/02/17 08:39:17;;;;;;;;;;;;;;;4.16;71.07;102091.22;1945270;74;20101;-39
2023/02/17 08:41:45;;;;;;;;;;;;;;;4.20;71.02;102091.69;1945271;74;20144;-39
2023/02/17 08:44:14;;;;;;;;;;;;;;;4.25;70.97;102091.30;1945249;74;20138;-38
2023/02/17 08:46:43;;;;;;;;;;;;;;;4.28;70.98;102089.17;1945179;74;20143;-39
2023/02/17 08:49:11;;;;;;;;;;;;;;;4.32;70.97;102086.16;1945347;74;20179;-39
2023/02/17 08:51:40;;;;;;;;;;;;;;;4.38;70.94;102077.08;1945310;74;20394;-39
2023/02/17 08:54:09;;;;;;;;;;;;;;;4.51;71.00;102076.30;1944961;72;20626;-39
2023/02/17 08:56:38;;;;;;;;;;;;;;;4.53;70.86;102066.75;1943093;74;20104;-39
2023/02/17 08:59:08;;;;;;;;;;;;;;;4.52;70.83;102070.23;1944077;74;20382;-39
2023/02/17 09:01:37;;;;;;;;;;;;;;;4.58;70.85;102059.83;1944200;74;20556;-39
2023/02/17 09:04:05;;;;;;;;;;;;;;;4.64;70.80;102069.00;1944115;74;20150;-38
2023/02/17 09:06:35;;;;;;;;;;;;;;;4.79;70.52;102054.31;1944090;74;20366;-38
2023/02/17 09:09:03;;;;;;;;;;;;;;;4.91;70.24;102058.30;1944141;74;20405;-39
2023/02/17 09:11:31;;;;;;;;;;;;;;;5.12;70.03;102052.75;1944102;74;20371;-39
2023/02/17 09:13:59;;;;;;;;;;;;;;;5.34;69.35;102061.10;1943917;74;20116;-39
2023/02/17 09:16:27;;;;;;;;;;;;;;;5.60;68.65;102061.19;1944011;74;20195;-39
2023/02/17 09:18:55;;;;;;;;;;;;;;;5.86;68.06;102056.89;1943998;74;20143;-39
2023/02/17 09:21:23;;;;;;;;;;;;;;;6.05;67.38;102046.05;1944009;74;20117;-39
2023/02/17 09:23:52;;;;;;;;;;;;;;;6.19;66.70;102042.56;1943993;74;20113;-39
2023/02/17 09:26:21;;;;;;;;;;;;;;;6.27;65.48;102041.28;1944117;73;20375;-39
2023/02/17 09:28:49;;;;;;;;;;;;;;;6.35;64.74;102034.73;1944102;74;20399;-38
2023/02/17 09:31:18;;;;;;;;;;;;;;;6.37;64.68;102021.20;1944046;74;20138;-38
2023/02/17 09:33:47;;;;;;;;;;;;;;;6.42;64.62;102031.23;1943980;74;20120;-38
2023/02/17 09:36:16;;;;;;;;;;;;;;;6.47;63.96;102025.53;1944043;74;20136;-38
2023/02/17 09:38:44;;;;;;;;;;;;;;;6.46;64.17;102021.64;1944010;74;20117;-38
2023/02/17 09:41:25;;;;;;;;;;;;;;;6.49;64.30;102022.51;1943939;74;20172;-39
2023/02/17 09:43:54;;;;;;;;;;;;;;;6.50;63.81;102021.62;1944002;74;20101;-39
2023/02/17 09:46:23;;;;;;;;;;;;;;;6.51;63.88;102003.75;1943989;74;20112;-39
2023/02/17 09:48:52;;;;;;;;;;;;;;;6.57;63.86;102006.79;1943984;74;20117;-39
2023/02/17 09:51:21;;;;;;;;;;;;;;;6.61;63.97;102005.03;1943864;74;20155;-40
2023/02/17 09:53:50;;;;;;;;;;;;;;;6.64;64.04;101993.23;1922249;74;20203;-39
2023/02/17 09:56:19;;;;;;;;;;;;;;;6.70;63.78;101980.14;1943674;73;20401;-39
2023/02/17 09:58:48;;;;;;;;;;;;;;;6.74;63.80;101986.66;1943638;74;20105;-39
2023/02/17 10:01:18;;;;;;;;;;;;;;;6.83;63.90;101982.28;1943687;74;20151;-39
2023/02/17 10:03:53;;;;;;;;;;;;;;;6.97;64.14;101979.15;1942165;74;20104;-39
2023/02/17 10:06:26;;;;;;;;;;;;;;;7.13;63.97;101983.89;1943697;74;20191;-39
2023/02/17 10:08:55;;;;;;;;;;;;;;;7.15;63.58;101971.66;1943688;74;20139;-39
2023/02/17 10:11:34;;;;;;;;;;;;;;;7.17;63.69;101968.59;1943232;74;20116;-39
2023/02/17 10:14:06;;;;;;;;;;;;;;;7.23;63.71;101963.75;1943787;74;20355;-39
2023/02/17 10:16:42;;;;;;;;;;;;;;;7.23;63.38;101960.72;1941663;74;20104;-39
2023/02/17 10:19:14;;;;;;;;;;;;;;;7.30;63.66;101964.15;1906373;74;20163;-39
2023/02/17 10:21:52;;;;;;;;;;;;;;;7.37;63.24;101954.52;1943788;74;20339;-39
2023/02/17 10:24:21;;;;;;;;;;;;;;;7.33;63.11;101953.66;1943225;74;20147;-39
2023/02/17 10:26:50;;;;;;;;;;;;;;;7.31;63.43;101947.12;1943544;74;20190;-40
2023/02/17 10:29:19;;;;;;;;;;;;;;;7.27;63.52;101949.33;1943679;74;20199;-40
2023/02/17 10:31:48;;;;;;;;;;;;;;;7.27;63.67;101945.84;1943815;74;20143;-39
2023/02/17 10:34:25;;;;;;;;;;;;;;;7.23;63.02;101924.04;1942292;74;20108;-39
2023/02/17 10:36:54;;;;;;;;;;;;;;;7.11;63.03;101954.22;1941697;74;20164;-39
2023/02/17 10:39:29;;;;;;;;;;;;;;;7.01;63.08;101942.03;1943630;74;20100;-40
2023/02/17 10:41:57;;;;;;;;;;;;;;;7.01;63.41;101928.53;1943696;74;20122;-39
2023/02/17 10:44:25;;;;;;;;;;;;;;;7.03;63.27;101925.91;1943722;74;20109;-39
2023/02/17 10:46:54;;;;;;;;;;;;;;;7.07;63.49;101925.00;1943674;74;20112;-39
2023/02/17 10:49:23;;;;;;;;;;;;;;;7.02;63.47;101928.94;1943658;74;20109;-39
2023/02/17 10:51:51;;;;;;;;;;;;;;;7.07;63.77;101925.87;1943530;74;20105;-39
2023/02/17 10:54:21;;;;;;;;;;;;;;;7.14;63.81;101925.41;1943678;74;20173;-39
2023/02/17 10:56:50;;;;;;;;;;;;;;;7.17;63.50;101924.50;1943870;73;20112;-39
2023/02/17 10:59:22;;;;;;;;;;;;;;;7.15;63.73;101925.37;1945249;74;20101;-39
2023/02/17 11:01:50;;;;;;;;;;;;;;;7.14;63.85;101931.50;1945295;74;20662;-39
2023/02/17 11:04:18;;;;;;;;;;;;;;;7.06;64.13;101912.77;1945376;74;20117;-39
2023/02/17 11:06:50;;;;;;;;;;;;;;;6.96;64.25;101921.13;1945205;74;20109;-40
2023/02/17 11:09:27;;;;;;;;;;;;;;;6.85;64.68;101914.63;1945386;74;20117;-39
2023/02/17 11:11:55;;;;;;;;;;;;;;;6.80;64.92;101912.91;1944730;74;20140;-39
2023/02/17 11:14:27;;;;;;;;;;;;;;;6.81;65.25;101902.44;1927100;74;20120;-39
2023/02/17 11:17:03;;;;;;;;;;;;;;;6.76;65.39;101908.13;1945233;74;20147;-39
2023/02/17 11:19:35;;;;;;;;;;;;;;;6.71;65.58;101899.42;1945282;74;20104;-40
2023/02/17 11:22:04;;;;;;;;;;;;;;;6.79;65.91;101900.27;1945349;74;20113;-39
2023/02/17 11:24:33;;;;;;;;;;;;;;;6.88;65.92;101897.61;1945307;74;20151;-39
2023/02/17 11:27:02;;;;;;;;;;;;;;;6.93;66.01;101887.98;1945216;74;20528;-39
2023/02/17 11:29:30;;;;;;;;;;;;;;;7.02;65.75;101895.34;1945343;74;20433;-40
2023/02/17 11:32:00;;;;;;;;;;;;;;;7.03;65.74;101874.84;1945432;74;20176;-39
2023/02/17 11:34:31;;;;;;;;;;;;;;;7.05;65.74;101886.17;1945381;74;20385;-39
2023/02/17 11:37:04;;;;;;;;;;;;;;;6.95;65.79;101890.16;1945286;74;20182;-39
2023/02/17 11:39:33;;;;;;;;;;;;;;;6.87;65.93;101881.45;1942002;74;20117;-39
2023/02/17 11:42:01;;;;;;;;;;;;;;;6.84;66.25;101839.60;1944730;74;20117;-40
2023/02/17 11:44:29;;;;;;;;;;;;;;;6.77;66.62;101881.09;1945242;74;20179;-39
2023/02/17 11:47:04;;;;;;;;;;;;;;;6.71;67.10;101877.17;1945297;74;20142;-39
2023/02/17 11:49:42;;;;;;;;;;;;;;;6.74;67.44;101862.32;1944757;74;20439;-39
2023/02/17 11:52:17;;;;;;;;;;;;;;;6.78;67.49;101871.03;1944958;74;20159;-38
2023/02/17 11:54:54;;;;;;;;;;;;;;;6.83;67.77;101872.33;1945204;74;20171;-39
2023/02/17 11:57:29;;;;;;;;;;;;;;;6.90;67.87;101856.57;1939580;73;20101;-39
2023/02/17 12:00:15;;;;;;;;;;;;;;;7.05;67.68;101861.30;1950672;74;20108;-39
2023/02/17 12:03:00;;;;;;;;;;;;;;;7.09;67.70;101857.77;1950499;74;20104;-39
2023/02/17 12:05:42;;;;;;;;;;;;;;;7.04;67.86;101845.13;1950564;74;20151;-39
2023/02/17 12:08:20;;;;;;;;;;;;;;;7.02;67.76;101849.52;1950496;74;20160;-39
2023/02/17 12:11:06;;;;;;;;;;;;;;;7.03;67.83;101847.34;1950199;73;20393;-39
2023/02/17 12:13:41;;;;;;;;;;;;;;;7.08;67.58;101833.75;1950563;73;20164;-39
2023/02/17 12:16:22;;;;;;;;;;;;;;;7.11;67.34;101835.05;1949369;73;20116;-39
2023/02/17 12:18:58;;;;;;;;;;;;;;;7.11;67.18;101856.00;1950018;73;20112;-39
2023/02/17 12:21:33;;;;;;;;;;;;;;;7.09;67.01;101845.98;1917209;73;20117;-39
2023/02/17 12:24:20;;;;;;;;;;;;;;;7.11;66.91;101842.91;1950464;74;20183;-39
2023/02/17 12:26:50;;;;;;;;;;;;;;;7.16;66.81;101841.13;1950459;74;20146;-39
2023/02/17 12:29:19;;;;;;;;;;;;;;;7.31;66.80;101842.31;1950071;73;20147;-39
2023/02/17 12:32:03;;;;;;;;;;;;;;;7.46;66.38;101832.14;1949594;73;20143;-39
2023/02/17 12:34:34;;;;;;;;;;;;;;;7.50;65.55;101822.51;1950491;74;20116;-39
2023/02/17 12:37:01;;;;;;;;;;;;;;;7.51;65.15;101820.33;1950530;74;20116;-39
2023/02/17 12:39:30;;;;;;;;;;;;;;;7.42;64.94;101785.03;1950483;74;20116;-39
2023/02/17 12:42:02;;;;;;;;;;;;;;;7.32;65.15;101819.17;1950487;74;20117;-39
2023/02/17 12:44:32;;;;;;;;;;;;;;;7.28;65.37;101810.89;1950374;74;20350;-39
2023/02/17 12:47:01;;;;;;;;;;;;;;;7.21;65.43;101805.30;1950554;74;20179;-38
2023/02/17 12:49:33;;;;;;;;;;;;;;;7.13;65.37;101785.69;1950323;74;20142;-39
2023/02/17 12:52:02;;;;;;;;;;;;;;;7.10;65.44;101805.80;1950580;74;20146;-39
2023/02/17 12:54:34;;;;;;;;;;;;;;;7.12;65.57;101804.06;1949840;73;20409;-39
2023/02/17 12:57:06;;;;;;;;;;;;;;;7.14;65.56;101807.53;1947731;73;20113;-40
2023/02/17 12:59:41;;;;;;;;;;;;;;;7.09;65.27;101780.50;1945381;73;20367;-39